sensor_id;sensor_type;location;lat;lon;timestamp;temperature;humidity
30234;DHT22;17046;52.074;4.748;2023-02-15T00:00:03;2.30;99.90
30234;DHT22;17046;52.074;4.748;2023-02-15T00:02:28;2.40;99.90
30234;DHT22;17046;52.074;4.748;2023-02-15T00:04:54;2.40;99.90
30234;DHT22;17046;52.074;4.748;2023-02-15T00:07:21;2.40;99.90
30234;DHT22;17046;52.074;4.748;2023-02-15T00:09:47;2.40;99.90
30234;DHT22;17046;52.074;4.748;2023-02-15T00:12:14;2.50;99.90
30234;DHT22;17046;52.074;4.748;2023-02-15T00:14:40;2.80;99.90
30234;DHT22;17046;52.074;4.748;2023-02-15T00:17:05;2.50;99.90
30234;DHT22;17046;52.074;4.748;2023-02-15T00:19:31;2.60;99.90
30234;DHT22;17046;52.074;4.748;2023-02-15T00:21:56;2.50;99.90
30234;DHT22;17046;52.074;4.748;2023-02-15T00:24:22;2.40;99.90
30234;DHT22;17046;52.074;4.748;2023-02-15T00:26:48;2.70;99.90
30234;DHT22;17046;52.074;4.748;2023-02-15T00:29:15;2.50;99.90
30234;DHT22;17046;52.074;4.748;2023-02-15T00:31:42;2.60;99.90
30234;DHT22;17046;52.074;4.748;2023-02-15T00:34:13;2.50;99.90
30234;DHT22;17046;52.074;4.748;2023-02-15T00:39:07;2.60;99.90
30234;DHT22;17046;52.074;4.748;2023-02-15T00:41:33;2.60;99.90
30234;DHT22;17046;52.074;4.748;2023-02-15T00:43:58;2.70;99.90
30234;DHT22;17046;52.074;4.748;2023-02-15T00:46:24;2.70;99.90
30234;DHT22;17046;52.074;4.748;2023-02-15T00:48:50;2.70;99.90
30234;DHT22;17046;52.074;4.748;2023-02-15T00:51:16;2.70;99.90
30234;DHT22;17046;52.074;4.748;2023-02-15T00:53:43;2.70;99.90
30234;DHT22;17046;52.074;4.748;2023-02-15T00:56:10;2.60;99.90
30234;DHT22;17046;52.074;4.748;2023-02-15T00:58:35;2.60;99.90
30234;DHT22;17046;52.074;4.748;2023-02-15T01:01:06;2.60;99.90
30234;DHT22;17046;52.074;4.748;2023-02-15T01:03:32;2.40;99.90
30234;DHT22;17046;52.074;4.748;2023-02-15T01:05:58;2.40;99.90
30234;DHT22;17046;52.074;4.748;2023-02-15T01:08:24;2.20;99.90
30234;DHT22;17046;52.074;4.748;2023-02-15T01:10:50;2.20;99.90
30234;DHT22;17046;52.074;4.748;2023-02-15T01:13:16;2.30;99.90
30234;DHT22;17046;52.074;4.748;2023-02-15T01:15:42;2.20;99.90
30234;DHT22;17046;52.074;4.748;2023-02-15T01:18:08;2.00;99.90
30234;DHT22;17046;52.074;4.748;2023-02-15T01:20:36;2.40;99.90
30234;DHT22;17046;52.074;4.748;2023-02-15T01:23:05;2.00;99.90
30234;DHT22;17046;52.074;4.748;2023-02-15T01:25:32;2.00;99.90
30234;DHT22;17046;52.074;4.748;2023-02-15T01:27:58;1.80;99.90
30234;DHT22;17046;52.074;4.748;2023-02-15T01:30:23;1.90;99.90
30234;DHT22;17046;52.074;4.748;2023-02-15T01:32:49;2.00;99.90
30234;DHT22;17046;52.074;4.748;2023-02-15T01:35:14;2.00;99.90
30234;DHT22;17046;52.074;4.748;2023-02-15T01:37:40;2.00;99.90
30234;DHT22;17046;52.074;4.748;2023-02-15T01:40:08;2.00;99.90
30234;DHT22;17046;52.074;4.748;2023-02-15T01:42:34;2.10;99.90
30234;DHT22;17046;52.074;4.748;2023-02-15T01:45:04;2.10;99.90
30234;DHT22;17046;52.074;4.748;2023-02-15T01:47:43;2.00;99.90
30234;DHT22;17046;52.074;4.748;2023-02-15T01:53:12;2.00;99.90
30234;DHT22;17046;52.074;4.748;2023-02-15T01:55:43;2.00;99.90
30234;DHT22;17046;52.074;4.748;2023-02-15T01:58:09;2.00;99.90
30234;DHT22;17046;52.074;4.748;2023-02-15T02:00:35;2.10;99.90
30234;DHT22;17046;52.074;4.748;2023-02-15T02:03:01;2.10;99.90
30234;DHT22;17046;52.074;4.748;2023-02-15T02:05:29;2.10;99.90
30234;DHT22;17046;52.074;4.748;2023-02-15T02:07:57;2.20;99.90
30234;DHT22;17046;52.074;4.748;2023-02-15T02:10:24;2.20;99.90
30234;DHT22;17046;52.074;4.748;2023-02-15T02:12:53;2.20;99.90
30234;DHT22;17046;52.074;4.748;2023-02-15T02:15:23;2.20;99.90
30234;DHT22;17046;52.074;4.748;2023-02-15T02:23:30;2.30;99.90
30234;DHT22;17046;52.074;4.748;2023-02-15T02:29:32;2.20;99.90
30234;DHT22;17046;52.074;4.748;2023-02-15T02:35:15;2.20;99.90
30234;DHT22;17046;52.074;4.748;2023-02-15T02:38:08;2.10;99.90
30234;DHT22;17046;52.074;4.748;2023-02-15T02:46:24;2.00;99.90
30234;DHT22;17046;52.074;4.748;2023-02-15T02:48:50;2.10;99.90
30234;DHT22;17046;52.074;4.748;2023-02-15T02:51:16;2.00;99.90
30234;DHT22;17046;52.074;4.748;2023-02-15T02:53:56;2.00;99.90
30234;DHT22;17046;52.074;4.748;2023-02-15T02:56:29;2.00;99.90
30234;DHT22;17046;52.074;4.748;2023-02-15T02:59:18;2.00;99.90
30234;DHT22;17046;52.074;4.748;2023-02-15T03:01:52;2.00;99.90
30234;DHT22;17046;52.074;4.748;2023-02-15T03:04:25;2.00;99.90
30234;DHT22;17046;52.074;4.748;2023-02-15T03:07:01;2.10;99.90
30234;DHT22;17046;52.074;4.748;2023-02-15T03:09:39;2.00;99.90
30234;DHT22;17046;52.074;4.748;2023-02-15T03:12:18;2.00;99.90
30234;DHT22;17046;52.074;4.748;2023-02-15T03:14:48;2.00;99.90
30234;DHT22;17046;52.074;4.748;2023-02-15T03:17:17;2.00;99.90
30234;DHT22;17046;52.074;4.748;2023-02-15T03:19:45;1.90;99.90
30234;DHT22;17046;52.074;4.748;2023-02-15T03:22:18;1.90;99.90
30234;DHT22;17046;52.074;4.748;2023-02-15T03:25:02;1.80;99.90
30234;DHT22;17046;52.074;4.748;2023-02-15T03:27:39;1.80;99.90
30234;DHT22;17046;52.074;4.748;2023-02-15T03:30:07;1.70;99.90
30234;DHT22;17046;52.074;4.748;2023-02-15T03:32:34;1.70;99.90
30234;DHT22;17046;52.074;4.748;2023-02-15T03:35:00;1.70;99.90
30234;DHT22;17046;52.074;4.748;2023-02-15T03:37:36;1.70;99.90
30234;DHT22;17046;52.074;4.748;2023-02-15T03:40:29;1.80;99.90
30234;DHT22;17046;52.074;4.748;2023-02-15T03:46:12;1.70;99.90
30234;DHT22;17046;52.074;4.748;2023-02-15T03:49:03;1.70;99.90
30234;DHT22;17046;52.074;4.748;2023-02-15T03:51:33;1.70;99.90
30234;DHT22;17046;52.074;4.748;2023-02-15T03:54:12;1.70;99.90
30234;DHT22;17046;52.074;4.748;2023-02-15T03:56:41;1.70;99.90
30234;DHT22;17046;52.074;4.748;2023-02-15T03:59:27;1.70;99.90
30234;DHT22;17046;52.074;4.748;2023-02-15T04:02:21;1.70;99.90
30234;DHT22;17046;52.074;4.748;2023-02-15T04:04:48;1.70;99.90
30234;DHT22;17046;52.074;4.748;2023-02-15T04:07:14;1.70;99.90
30234;DHT22;17046;52.074;4.748;2023-02-15T04:09:39;1.70;99.90
30234;DHT22;17046;52.074;4.748;2023-02-15T04:12:23;1.70;99.90
30234;DHT22;17046;52.074;4.748;2023-02-15T04:14:49;1.70;99.90
30234;DHT22;17046;52.074;4.748;2023-02-15T04:17:35;1.80;99.90
30234;DHT22;17046;52.074;4.748;2023-02-15T04:20:00;1.80;99.90
30234;DHT22;17046;52.074;4.748;2023-02-15T04:22:44;1.80;99.90
30234;DHT22;17046;52.074;4.748;2023-02-15T04:25:28;1.80;99.90
30234;DHT22;17046;52.074;4.748;2023-02-15T04:27:55;1.80;99.90
30234;DHT22;17046;52.074;4.748;2023-02-15T04:30:23;1.80;99.90
30234;DHT22;17046;52.074;4.748;2023-02-15T04:32:49;1.80;99.90
30234;DHT22;17046;52.074;4.748;2023-02-15T04:35:15;1.80;99.90
30234;DHT22;17046;52.074;4.748;2023-02-15T04:37:42;1.70;99.90
30234;DHT22;17046;52.074;4.748;2023-02-15T04:40:10;1.70;99.90
30234;DHT22;17046;52.074;4.748;2023-02-15T04:42:36;1.70;99.90
30234;DHT22;17046;52.074;4.748;2023-02-15T04:45:02;1.70;99.90
30234;DHT22;17046;52.074;4.748;2023-02-15T04:47:28;1.70;99.90
30234;DHT22;17046;52.074;4.748;2023-02-15T04:49:54;1.70;99.90
30234;DHT22;17046;52.074;4.748;2023-02-15T04:52:19;1.70;99.90
30234;DHT22;17046;52.074;4.748;2023-02-15T04:54:45;1.70;99.90
30234;DHT22;17046;52.074;4.748;2023-02-15T04:57:11;1.70;99.90
30234;DHT22;17046;52.074;4.748;2023-02-15T04:59:36;1.70;99.90
30234;DHT22;17046;52.074;4.748;2023-02-15T05:02:02;1.70;99.90
30234;DHT22;17046;52.074;4.748;2023-02-15T05:04:28;1.70;99.90
30234;DHT22;17046;52.074;4.748;2023-02-15T05:06:54;1.80;99.90
30234;DHT22;17046;52.074;4.748;2023-02-15T05:09:19;1.80;99.90
30234;DHT22;17046;52.074;4.748;2023-02-15T05:11:45;1.80;99.90
30234;DHT22;17046;52.074;4.748;2023-02-15T05:14:10;1.70;99.90
30234;DHT22;17046;52.074;4.748;2023-02-15T05:16:36;1.80;99.90
30234;DHT22;17046;52.074;4.748;2023-02-15T05:19:02;1.80;99.90
30234;DHT22;17046;52.074;4.748;2023-02-15T05:21:28;1.80;99.90
30234;DHT22;17046;52.074;4.748;2023-02-15T05:23:53;1.70;99.90
30234;DHT22;17046;52.074;4.748;2023-02-15T05:26:21;1.70;99.90
30234;DHT22;17046;52.074;4.748;2023-02-15T05:29:06;1.70;99.90
30234;DHT22;17046;52.074;4.748;2023-02-15T05:31:33;1.70;99.90
30234;DHT22;17046;52.074;4.748;2023-02-15T05:33:59;1.60;99.90
30234;DHT22;17046;52.074;4.748;2023-02-15T05:36:24;1.60;99.90
30234;DHT22;17046;52.074;4.748;2023-02-15T05:38:50;1.60;99.90
30234;DHT22;17046;52.074;4.748;2023-02-15T05:41:16;1.60;99.90
30234;DHT22;17046;52.074;4.748;2023-02-15T05:43:42;1.60;99.90
30234;DHT22;17046;52.074;4.748;2023-02-15T05:46:08;1.60;99.90
30234;DHT22;17046;52.074;4.748;2023-02-15T05:48:34;1.60;99.90
30234;DHT22;17046;52.074;4.748;2023-02-15T05:51:08;1.60;99.90
30234;DHT22;17046;52.074;4.748;2023-02-15T05:53:37;1.60;99.90
30234;DHT22;17046;52.074;4.748;2023-02-15T05:56:04;1.60;99.90
30234;DHT22;17046;52.074;4.748;2023-02-15T05:58:32;1.60;99.90
30234;DHT22;17046;52.074;4.748;2023-02-15T06:00:58;1.60;99.90
30234;DHT22;17046;52.074;4.748;2023-02-15T06:03:24;1.60;99.90
30234;DHT22;17046;52.074;4.748;2023-02-15T06:05:51;1.60;99.90
30234;DHT22;17046;52.074;4.748;2023-02-15T06:08:17;1.60;99.90
30234;DHT22;17046;52.074;4.748;2023-02-15T06:10:45;1.50;99.90
30234;DHT22;17046;52.074;4.748;2023-02-15T06:13:10;1.50;99.90
30234;DHT22;17046;52.074;4.748;2023-02-15T06:15:36;1.50;99.90
30234;DHT22;17046;52.074;4.748;2023-02-15T06:18:02;1.50;99.90
30234;DHT22;17046;52.074;4.748;2023-02-15T06:20:27;1.40;99.90
30234;DHT22;17046;52.074;4.748;2023-02-15T06:22:53;1.50;99.90
30234;DHT22;17046;52.074;4.748;2023-02-15T06:25:19;1.40;99.90
30234;DHT22;17046;52.074;4.748;2023-02-15T06:27:44;1.40;99.90
30234;DHT22;17046;52.074;4.748;2023-02-15T06:30:11;1.40;99.90
30234;DHT22;17046;52.074;4.748;2023-02-15T06:32:36;1.30;99.90
30234;DHT22;17046;52.074;4.748;2023-02-15T06:35:02;1.30;99.90
30234;DHT22;17046;52.074;4.748;2023-02-15T06:37:28;1.30;99.90
30234;DHT22;17046;52.074;4.748;2023-02-15T06:39:54;1.20;99.90
30234;DHT22;17046;52.074;4.748;2023-02-15T06:42:21;1.20;99.90
30234;DHT22;17046;52.074;4.748;2023-02-15T06:44:47;1.20;99.90
30234;DHT22;17046;52.074;4.748;2023-02-15T06:47:13;1.20;99.90
30234;DHT22;17046;52.074;4.748;2023-02-15T06:49:38;1.20;99.90
30234;DHT22;17046;52.074;4.748;2023-02-15T06:52:04;1.10;99.90
30234;DHT22;17046;52.074;4.748;2023-02-15T06:54:30;1.10;99.90
30234;DHT22;17046;52.074;4.748;2023-02-15T06:56:55;1.20;99.90
30234;DHT22;17046;52.074;4.748;2023-02-15T06:59:21;1.10;99.90
30234;DHT22;17046;52.074;4.748;2023-02-15T07:01:47;1.10;99.90
30234;DHT22;17046;52.074;4.748;2023-02-15T07:04:14;1.10;99.90
30234;DHT22;17046;52.074;4.748;2023-02-15T07:06:40;1.10;99.90
30234;DHT22;17046;52.074;4.748;2023-02-15T07:09:05;1.20;99.90
30234;DHT22;17046;52.074;4.748;2023-02-15T07:11:31;1.20;99.90
30234;DHT22;17046;52.074;4.748;2023-02-15T07:14:15;1.20;99.90
30234;DHT22;17046;52.074;4.748;2023-02-15T07:16:41;1.20;99.90
30234;DHT22;17046;52.074;4.748;2023-02-15T07:19:06;1.30;99.90
30234;DHT22;17046;52.074;4.748;2023-02-15T07:21:33;1.30;99.90
30234;DHT22;17046;52.074;4.748;2023-02-15T07:23:59;1.30;99.90
30234;DHT22;17046;52.074;4.748;2023-02-15T07:26:25;1.40;99.90
30234;DHT22;17046;52.074;4.748;2023-02-15T07:28:50;1.40;99.90
30234;DHT22;17046;52.074;4.748;2023-02-15T07:31:16;1.40;99.90
30234;DHT22;17046;52.074;4.748;2023-02-15T07:33:42;1.40;99.90
30234;DHT22;17046;52.074;4.748;2023-02-15T07:36:08;1.50;99.90
30234;DHT22;17046;52.074;4.748;2023-02-15T07:38:38;1.40;99.90
30234;DHT22;17046;52.074;4.748;2023-02-15T07:41:09;1.50;99.90
30234;DHT22;17046;52.074;4.748;2023-02-15T07:43:38;1.40;99.90
30234;DHT22;17046;52.074;4.748;2023-02-15T07:46:10;1.50;99.90
30234;DHT22;17046;52.074;4.748;2023-02-15T07:48:37;1.50;99.90
30234;DHT22;17046;52.074;4.748;2023-02-15T07:51:05;1.50;99.90
30234;DHT22;17046;52.074;4.748;2023-02-15T07:53:32;1.50;99.90
30234;DHT22;17046;52.074;4.748;2023-02-15T07:56:02;1.50;99.90
30234;DHT22;17046;52.074;4.748;2023-02-15T07:58:28;1.60;99.90
30234;DHT22;17046;52.074;4.748;2023-02-15T08:01:29;1.60;99.90
30234;DHT22;17046;52.074;4.748;2023-02-15T08:03:55;1.60;99.90
30234;DHT22;17046;52.074;4.748;2023-02-15T08:06:23;1.70;99.90
30234;DHT22;17046;52.074;4.748;2023-02-15T08:08:49;1.70;99.90
30234;DHT22;17046;52.074;4.748;2023-02-15T08:11:17;1.70;99.90
30234;DHT22;17046;52.074;4.748;2023-02-15T08:13:57;1.80;99.90
30234;DHT22;17046;52.074;4.748;2023-02-15T08:16:45;1.80;99.90
30234;DHT22;17046;52.074;4.748;2023-02-15T08:19:18;1.80;99.90
30234;DHT22;17046;52.074;4.748;2023-02-15T08:21:46;1.80;99.90
30234;DHT22;17046;52.074;4.748;2023-02-15T08:24:13;1.90;99.90
30234;DHT22;17046;52.074;4.748;2023-02-15T08:26:40;1.90;99.90
30234;DHT22;17046;52.074;4.748;2023-02-15T08:29:07;2.00;99.90
30234;DHT22;17046;52.074;4.748;2023-02-15T08:31:34;2.00;99.90
30234;DHT22;17046;52.074;4.748;2023-02-15T08:34:00;2.10;99.90
30234;DHT22;17046;52.074;4.748;2023-02-15T08:36:28;2.20;99.90
30234;DHT22;17046;52.074;4.748;2023-02-15T08:38:57;2.20;99.90
30234;DHT22;17046;52.074;4.748;2023-02-15T08:41:28;2.30;99.90
30234;DHT22;17046;52.074;4.748;2023-02-15T08:43:57;2.40;99.90
30234;DHT22;17046;52.074;4.748;2023-02-15T08:46:25;2.40;99.90
30234;DHT22;17046;52.074;4.748;2023-02-15T08:48:51;2.50;99.90
30234;DHT22;17046;52.074;4.748;2023-02-15T08:51:20;2.60;99.90
30234;DHT22;17046;52.074;4.748;2023-02-15T08:53:52;2.60;99.90
30234;DHT22;17046;52.074;4.748;2023-02-15T08:56:21;2.70;99.90
30234;DHT22;17046;52.074;4.748;2023-02-15T08:58:47;2.80;99.90
30234;DHT22;17046;52.074;4.748;2023-02-15T09:01:26;2.90;99.90
30234;DHT22;17046;52.074;4.748;2023-02-15T09:03:57;2.90;99.90
30234;DHT22;17046;52.074;4.748;2023-02-15T09:06:23;3.00;99.90
30234;DHT22;17046;52.074;4.748;2023-02-15T09:08:49;3.10;99.90
30234;DHT22;17046;52.074;4.748;2023-02-15T09:11:18;3.10;99.90
30234;DHT22;17046;52.074;4.748;2023-02-15T09:13:53;3.20;99.90
30234;DHT22;17046;52.074;4.748;2023-02-15T09:16:20;3.20;99.90
30234;DHT22;17046;52.074;4.748;2023-02-15T09:18:46;3.30;99.90
30234;DHT22;17046;52.074;4.748;2023-02-15T09:21:14;3.40;99.90
30234;DHT22;17046;52.074;4.748;2023-02-15T09:23:41;3.50;99.90
30234;DHT22;17046;52.074;4.748;2023-02-15T09:26:12;3.60;99.90
30234;DHT22;17046;52.074;4.748;2023-02-15T09:28:38;3.80;99.90
30234;DHT22;17046;52.074;4.748;2023-02-15T09:31:24;3.90;99.90
30234;DHT22;17046;52.074;4.748;2023-02-15T09:33:51;4.10;99.90
30234;DHT22;17046;52.074;4.748;2023-02-15T09:36:32;4.30;99.90
30234;DHT22;17046;52.074;4.748;2023-02-15T09:41:55;4.60;99.90
30234;DHT22;17046;52.074;4.748;2023-02-15T09:54:02;5.30;99.90
30234;DHT22;17046;52.074;4.748;2023-02-15T09:56:53;5.30;99.90
30234;DHT22;17046;52.074;4.748;2023-02-15T10:02:21;5.50;99.90
30234;DHT22;17046;52.074;4.748;2023-02-15T10:08:06;5.60;99.90
30234;DHT22;17046;52.074;4.748;2023-02-15T10:10:57;5.60;99.90
30234;DHT22;17046;52.074;4.748;2023-02-15T10:17:35;5.80;99.90
30234;DHT22;17046;52.074;4.748;2023-02-15T10:23:11;5.90;99.90
30234;DHT22;17046;52.074;4.748;2023-02-15T10:28:50;6.10;99.90
30234;DHT22;17046;52.074;4.748;2023-02-15T10:31:37;6.10;99.90
30234;DHT22;17046;52.074;4.748;2023-02-15T10:34:51;6.20;99.90
30234;DHT22;17046;52.074;4.748;2023-02-15T10:37:29;6.30;99.90
30234;DHT22;17046;52.074;4.748;2023-02-15T10:40:28;6.30;99.90
30234;DHT22;17046;52.074;4.748;2023-02-15T10:43:10;6.40;99.90
30234;DHT22;17046;52.074;4.748;2023-02-15T10:50:58;6.40;99.90
30234;DHT22;17046;52.074;4.748;2023-02-15T11:10:01;7.20;99.90
30234;DHT22;17046;52.074;4.748;2023-02-15T11:12:30;7.40;99.90
30234;DHT22;17046;52.074;4.748;2023-02-15T11:15:13;7.60;99.90
30234;DHT22;17046;52.074;4.748;2023-02-15T11:17:46;7.60;99.90
30234;DHT22;17046;52.074;4.748;2023-02-15T11:21:34;7.70;99.90
30234;DHT22;17046;52.074;4.748;2023-02-15T11:23:28;7.70;99.90
30234;DHT22;17046;52.074;4.748;2023-02-15T11:25:59;7.70;99.90
30234;DHT22;17046;52.074;4.748;2023-02-15T11:28:34;7.80;99.90
30234;DHT22;17046;52.074;4.748;2023-02-15T11:31:12;7.90;99.90
30234;DHT22;17046;52.074;4.748;2023-02-15T11:33:41;7.90;99.90
30234;DHT22;17046;52.074;4.748;2023-02-15T11:36:18;8.00;99.90
30234;DHT22;17046;52.074;4.748;2023-02-15T11:38:46;8.20;99.90
30234;DHT22;17046;52.074;4.748;2023-02-15T11:41:18;8.40;99.90
30234;DHT22;17046;52.074;4.748;2023-02-15T11:44:05;8.70;99.90
30234;DHT22;17046;52.074;4.748;2023-02-15T11:46:32;8.70;95.70
30234;DHT22;17046;52.074;4.748;2023-02-15T11:48:58;8.90;91.10
30234;DHT22;17046;52.074;4.748;2023-02-15T11:51:24;9.10;68.20
30234;DHT22;17046;52.074;4.748;2023-02-15T11:53:52;9.00;49.80
30234;DHT22;17046;52.074;4.748;2023-02-15T11:56:27;9.20;56.10
30234;DHT22;17046;52.074;4.748;2023-02-15T11:58:59;9.30;47.60
30234;DHT22;17046;52.074;4.748;2023-02-15T12:01:42;9.40;22.60
30234;DHT22;17046;52.074;4.748;2023-02-15T12:04:21;9.40;36.70
30234;DHT22;17046;52.074;4.748;2023-02-15T12:06:58;9.50;35.20
30234;DHT22;17046;52.074;4.748;2023-02-15T12:12:25;9.70;6.90
30234;DHT22;17046;52.074;4.748;2023-02-15T12:14:57;9.70;2.40
30234;DHT22;17046;52.074;4.748;2023-02-15T12:22:34;10.00;1.00
30234;DHT22;17046;52.074;4.748;2023-02-15T12:25:11;10.10;1.00
30234;DHT22;17046;52.074;4.748;2023-02-15T12:27:45;10.10;1.00
30234;DHT22;17046;52.074;4.748;2023-02-15T12:32:56;10.30;1.00
30234;DHT22;17046;52.074;4.748;2023-02-15T12:35:33;10.50;1.00
30234;DHT22;17046;52.074;4.748;2023-02-15T12:38:22;10.60;1.00
30234;DHT22;17046;52.074;4.748;2023-02-15T12:43:29;10.70;1.00
30234;DHT22;17046;52.074;4.748;2023-02-15T12:48:39;10.60;1.00
30234;DHT22;17046;52.074;4.748;2023-02-15T12:51:08;10.60;1.00
30234;DHT22;17046;52.074;4.748;2023-02-15T12:53:35;10.50;99.90
30234;DHT22;17046;52.074;4.748;2023-02-15T12:56:03;10.60;99.90
30234;DHT22;17046;52.074;4.748;2023-02-15T12:58:31;10.60;1.00
30234;DHT22;17046;52.074;4.748;2023-02-15T13:01:15;10.60;1.00
30234;DHT22;17046;52.074;4.748;2023-02-15T13:04:01;10.50;1.00
30234;DHT22;17046;52.074;4.748;2023-02-15T13:06:31;10.50;1.00
30234;DHT22;17046;52.074;4.748;2023-02-15T13:09:06;10.60;1.00
30234;DHT22;17046;52.074;4.748;2023-02-15T13:11:32;10.70;99.90
30234;DHT22;17046;52.074;4.748;2023-02-15T13:14:27;10.80;99.90
30234;DHT22;17046;52.074;4.748;2023-02-15T13:16:56;10.90;99.90
30234;DHT22;17046;52.074;4.748;2023-02-15T13:22:05;11.00;99.90
30234;DHT22;17046;52.074;4.748;2023-02-15T13:24:39;11.10;99.90
30234;DHT22;17046;52.074;4.748;2023-02-15T13:27:16;11.30;99.90
30234;DHT22;17046;52.074;4.748;2023-02-15T13:29:46;11.20;99.90
30234;DHT22;17046;52.074;4.748;2023-02-15T13:32:22;11.20;99.90
30234;DHT22;17046;52.074;4.748;2023-02-15T13:34:49;11.20;99.90
30234;DHT22;17046;52.074;4.748;2023-02-15T13:37:34;11.30;99.90
30234;DHT22;17046;52.074;4.748;2023-02-15T13:40:08;11.20;99.90
30234;DHT22;17046;52.074;4.748;2023-02-15T13:42:49;11.20;99.90
30234;DHT22;17046;52.074;4.748;2023-02-15T13:53:53;11.20;99.90
30234;DHT22;17046;52.074;4.748;2023-02-15T14:02:04;11.50;99.90
30234;DHT22;17046;52.074;4.748;2023-02-15T14:10:57;11.00;99.90
30234;DHT22;17046;52.074;4.748;2023-02-15T14:18:58;11.40;99.90
30234;DHT22;17046;52.074;4.748;2023-02-15T14:21:34;11.50;99.90
30234;DHT22;17046;52.074;4.748;2023-02-15T14:24:33;11.50;99.90
30234;DHT22;17046;52.074;4.748;2023-02-15T14:30:01;11.60;99.90
30234;DHT22;17046;52.074;4.748;2023-02-15T14:32:35;11.70;99.90
30234;DHT22;17046;52.074;4.748;2023-02-15T14:35:05;11.80;64.70
30234;DHT22;17046;52.074;4.748;2023-02-15T14:49:41;11.30;99.90
30234;DHT22;17046;52.074;4.748;2023-02-15T14:56:46;10.90;99.90
30234;DHT22;17046;52.074;4.748;2023-02-15T15:05:24;10.80;1.00
30234;DHT22;17046;52.074;4.748;2023-02-15T15:07:53;10.70;1.00
30234;DHT22;17046;52.074;4.748;2023-02-15T15:12:56;10.60;1.00
30234;DHT22;17046;52.074;4.748;2023-02-15T15:18:07;10.60;1.00
30234;DHT22;17046;52.074;4.748;2023-02-15T15:20:53;10.60;1.00
30234;DHT22;17046;52.074;4.748;2023-02-15T15:45:44;10.20;1.00
30234;DHT22;17046;52.074;4.748;2023-02-15T15:48:26;10.30;1.00
30234;DHT22;17046;52.074;4.748;2023-02-15T15:50:57;10.20;1.00
30234;DHT22;17046;52.074;4.748;2023-02-15T15:53:26;10.20;1.00
30234;DHT22;17046;52.074;4.748;2023-02-15T15:55:57;10.10;1.00
30234;DHT22;17046;52.074;4.748;2023-02-15T15:58:24;10.10;1.00
30234;DHT22;17046;52.074;4.748;2023-02-15T16:00:52;10.10;1.00
30234;DHT22;17046;52.074;4.748;2023-02-15T16:03:23;10.00;1.00
30234;DHT22;17046;52.074;4.748;2023-02-15T16:05:49;10.00;1.00
30234;DHT22;17046;52.074;4.748;2023-02-15T16:08:39;10.00;1.00
30234;DHT22;17046;52.074;4.748;2023-02-15T16:11:24;9.90;1.00
30234;DHT22;17046;52.074;4.748;2023-02-15T16:13:50;9.80;1.00
30234;DHT22;17046;52.074;4.748;2023-02-15T16:16:27;9.80;1.00
30234;DHT22;17046;52.074;4.748;2023-02-15T16:18:55;9.80;1.00
30234;DHT22;17046;52.074;4.748;2023-02-15T16:21:43;9.70;1.00
30234;DHT22;17046;52.074;4.748;2023-02-15T16:24:41;9.60;9.10
30234;DHT22;17046;52.074;4.748;2023-02-15T16:29:47;9.40;25.70
30234;DHT22;17046;52.074;4.748;2023-02-15T16:32:21;9.30;35.00
30234;DHT22;17046;52.074;4.748;2023-02-15T16:34:56;9.20;59.70
30234;DHT22;17046;52.074;4.748;2023-02-15T16:37:27;9.20;64.70
30234;DHT22;17046;52.074;4.748;2023-02-15T16:39:56;9.10;75.90
30234;DHT22;17046;52.074;4.748;2023-02-15T16:42:23;9.00;83.10
30234;DHT22;17046;52.074;4.748;2023-02-15T16:44:52;8.90;91.70
30234;DHT22;17046;52.074;4.748;2023-02-15T16:47:26;8.80;97.80
30234;DHT22;17046;52.074;4.748;2023-02-15T16:49:54;8.80;99.90
30234;DHT22;17046;52.074;4.748;2023-02-15T16:52:25;8.80;99.90
30234;DHT22;17046;52.074;4.748;2023-02-15T16:55:02;8.70;99.90
30234;DHT22;17046;52.074;4.748;2023-02-15T16:57:32;8.70;99.90
30234;DHT22;17046;52.074;4.748;2023-02-15T17:00:19;8.50;99.90
30234;DHT22;17046;52.074;4.748;2023-02-15T17:03:06;8.50;99.90
30234;DHT22;17046;52.074;4.748;2023-02-15T17:06:04;8.50;99.90
30234;DHT22;17046;52.074;4.748;2023-02-15T17:08:42;8.60;99.90
30234;DHT22;17046;52.074;4.748;2023-02-15T17:11:17;8.60;99.90
30234;DHT22;17046;52.074;4.748;2023-02-15T17:16:30;8.50;99.90
30234;DHT22;17046;52.074;4.748;2023-02-15T17:18:57;8.50;99.90
30234;DHT22;17046;52.074;4.748;2023-02-15T17:21:32;8.40;99.90
30234;DHT22;17046;52.074;4.748;2023-02-15T17:24:00;8.40;99.90
30234;DHT22;17046;52.074;4.748;2023-02-15T17:26:29;8.30;99.90
30234;DHT22;17046;52.074;4.748;2023-02-15T17:28:59;8.30;99.90
30234;DHT22;17046;52.074;4.748;2023-02-15T17:31:29;8.20;99.90
30234;DHT22;17046;52.074;4.748;2023-02-15T17:33:56;8.20;99.90
30234;DHT22;17046;52.074;4.748;2023-02-15T17:36:26;8.20;99.90
30234;DHT22;17046;52.074;4.748;2023-02-15T17:41:23;8.00;99.90
30234;DHT22;17046;52.074;4.748;2023-02-15T17:43:48;8.00;99.90
30234;DHT22;17046;52.074;4.748;2023-02-15T17:46:14;7.90;99.90
30234;DHT22;17046;52.074;4.748;2023-02-15T17:48:46;8.00;99.90
30234;DHT22;17046;52.074;4.748;2023-02-15T17:51:13;7.90;99.90
30234;DHT22;17046;52.074;4.748;2023-02-15T17:53:39;7.90;99.90
30234;DHT22;17046;52.074;4.748;2023-02-15T17:56:05;7.80;99.90
30234;DHT22;17046;52.074;4.748;2023-02-15T17:58:36;7.70;99.90
30234;DHT22;17046;52.074;4.748;2023-02-15T18:01:05;7.70;99.90
30234;DHT22;17046;52.074;4.748;2023-02-15T18:03:51;7.60;99.90
30234;DHT22;17046;52.074;4.748;2023-02-15T18:06:38;7.60;99.90
30234;DHT22;17046;52.074;4.748;2023-02-15T18:09:23;7.60;99.90
30234;DHT22;17046;52.074;4.748;2023-02-15T18:12:28;7.50;99.90
30234;DHT22;17046;52.074;4.748;2023-02-15T18:14:56;7.50;99.90
30234;DHT22;17046;52.074;4.748;2023-02-15T18:17:32;7.50;99.90
30234;DHT22;17046;52.074;4.748;2023-02-15T18:20:00;7.50;99.90
30234;DHT22;17046;52.074;4.748;2023-02-15T18:22:29;7.60;99.90
30234;DHT22;17046;52.074;4.748;2023-02-15T18:24:55;7.60;99.90
30234;DHT22;17046;52.074;4.748;2023-02-15T18:27:21;7.60;99.90
30234;DHT22;17046;52.074;4.748;2023-02-15T18:29:47;7.70;99.90
30234;DHT22;17046;52.074;4.748;2023-02-15T18:32:20;7.70;99.90
30234;DHT22;17046;52.074;4.748;2023-02-15T18:34:47;7.70;99.90
30234;DHT22;17046;52.074;4.748;2023-02-15T18:37:17;7.70;99.90
30234;DHT22;17046;52.074;4.748;2023-02-15T18:39:45;7.70;99.90
30234;DHT22;17046;52.074;4.748;2023-02-15T18:42:21;7.80;99.90
30234;DHT22;17046;52.074;4.748;2023-02-15T18:44:52;7.80;99.90
30234;DHT22;17046;52.074;4.748;2023-02-15T18:47:18;7.80;99.90
30234;DHT22;17046;52.074;4.748;2023-02-15T18:49:44;7.80;99.90
30234;DHT22;17046;52.074;4.748;2023-02-15T18:52:20;7.80;99.90
30234;DHT22;17046;52.074;4.748;2023-02-15T18:54:47;7.80;99.90
30234;DHT22;17046;52.074;4.748;2023-02-15T18:57:15;7.70;99.90
30234;DHT22;17046;52.074;4.748;2023-02-15T18:59:41;7.70;99.90
30234;DHT22;17046;52.074;4.748;2023-02-15T19:02:14;7.80;99.90
30234;DHT22;17046;52.074;4.748;2023-02-15T19:04:40;7.80;99.90
30234;DHT22;17046;52.074;4.748;2023-02-15T19:07:24;7.80;99.90
30234;DHT22;17046;52.074;4.748;2023-02-15T19:09:54;7.80;99.90
30234;DHT22;17046;52.074;4.748;2023-02-15T19:12:20;7.80;99.90